createdAt,value
2023-04-04T00:00:47.524Z,49.94
2023-04-04T00:09:28.491Z,50.90
2023-04-04T00:10:36.089Z,50.04
2023-04-04T00:11:36.017Z,50.07
2023-04-04T00:19:34.126Z,51.43
2023-04-04T00:20:41.820Z,50.15
2023-04-04T00:30:11.276Z,51.59
2023-04-04T00:31:18.836Z,50.31
2023-04-04T00:41:22.086Z,51.46
2023-04-04T00:43:41.972Z,51.29
2023-04-04T00:46:01.851Z,50.79
2023-04-04T00:51:55.992Z,52.10
2023-04-04T00:55:43.439Z,51.18
2023-04-04T00:58:03.077Z,50.68
2023-04-04T01:03:01.127Z,51.75
2023-04-04T01:04:08.621Z,50.92
2023-04-04T01:05:09.178Z,50.65
2023-04-04T01:06:08.549Z,50.54
2023-04-04T01:07:09.169Z,50.61
2023-04-04T01:08:08.571Z,50.68
2023-04-04T01:13:33.779Z,52.03
2023-04-04T01:14:41.360Z,51.07
2023-04-04T01:15:41.378Z,50.82
2023-04-04T01:24:27.889Z,52.41
2023-04-04T01:25:35.459Z,51.42
2023-04-04T01:26:35.104Z,51.11
2023-04-04T01:30:14.977Z,51.36
2023-04-04T01:35:05.077Z,52.93
2023-04-04T01:36:12.899Z,52.01
2023-04-04T01:37:12.602Z,51.74
2023-04-04T01:38:12.195Z,51.68
2023-04-04T01:39:12.152Z,51.53
2023-04-04T01:40:12.443Z,51.69
2023-04-04T01:44:38.601Z,53.22
2023-04-04T01:45:46.261Z,52.07
2023-04-04T01:50:45.764Z,52.60
2023-04-04T01:56:15.156Z,53.32
2023-04-04T02:02:42.229Z,52.51
2023-04-04T02:07:20.705Z,53.70
2023-04-04T02:12:20.236Z,52.05
2023-04-04T02:18:16.743Z,53.86
2023-04-04T02:20:38.566Z,53.60
2023-04-04T02:29:09.087Z,54.01
2023-04-04T02:34:08.513Z,53.54
2023-04-04T02:45:09.798Z,54.23
2023-04-04T02:49:55.684Z,54.88
2023-04-04T02:51:03.058Z,53.74
2023-04-04T02:52:02.893Z,53.44
2023-04-04T02:55:47.073Z,54.32
2023-04-04T03:00:06.756Z,55.53
2023-04-04T03:01:14.328Z,54.32
2023-04-04T03:14:06.878Z,56.12
2023-04-04T03:32:39.390Z,56.85
2023-04-04T03:39:00.161Z,56.41
2023-04-04T03:43:16.395Z,56.65
2023-04-04T03:44:23.922Z,55.92
2023-04-04T03:49:31.547Z,56.85
2023-04-04T03:53:56.279Z,58.76
2023-04-04T04:00:23.786Z,57.83
2023-04-04T04:04:45.390Z,59.42
2023-04-04T04:05:52.863Z,58.05
2023-04-04T04:20:34.619Z,59.31
2023-04-04T04:25:51.330Z,59.81
2023-04-04T04:28:18.796Z,58.64
2023-04-04T04:29:18.974Z,58.28
2023-04-04T04:31:31.927Z,59.40
2023-04-04T04:32:39.481Z,58.63
2023-04-04T04:38:18.952Z,59.97
2023-04-04T04:39:26.846Z,58.79
2023-04-04T04:43:07.344Z,58.37
2023-04-04T04:48:38.945Z,59.93
2023-04-04T04:55:06.154Z,59.12
2023-04-04T05:00:06.909Z,59.82
2023-04-04T05:01:07.283Z,58.76
2023-04-04T05:04:47.283Z,58.56
2023-04-04T05:10:25.095Z,60.19
2023-04-04T05:14:12.540Z,58.36
2023-04-04T05:21:27.333Z,59.29
2023-04-04T05:32:39.245Z,58.94
2023-04-04T05:33:46.679Z,57.08
2023-04-04T05:41:26.149Z,57.47
2023-04-04T05:44:15.271Z,57.03
2023-04-04T05:46:34.881Z,57.22
2023-04-04T05:52:34.883Z,57.06
2023-04-04T06:03:14.833Z,57.45
2023-04-04T06:13:32.959Z,56.20
2023-04-04T06:18:39.931Z,54.73
2023-04-04T06:25:43.197Z,53.41
2023-04-04T06:26:50.691Z,51.89
2023-04-04T06:34:03.633Z,53.12
2023-04-04T06:37:50.857Z,52.58
2023-04-04T06:44:34.244Z,51.70
2023-04-04T06:48:21.575Z,51.08
2023-04-04T06:49:21.314Z,50.28
2023-04-04T06:50:21.308Z,49.90
2023-04-04T06:54:58.594Z,50.36
2023-04-04T07:04:15.183Z,49.64
2023-04-04T07:09:29.232Z,48.60
2023-04-04T07:14:32.577Z,48.35
2023-04-04T07:15:40.113Z,46.69
2023-04-04T07:16:40.203Z,46.09
2023-04-04T07:26:36.173Z,45.50
2023-04-04T07:30:15.512Z,44.31
2023-04-04T07:31:15.467Z,43.27
2023-04-04T07:36:08.146Z,43.65
2023-04-04T07:37:15.547Z,42.47
2023-04-04T07:40:55.188Z,41.80
2023-04-04T07:47:08.741Z,39.06
2023-04-04T07:48:06.128Z,38.54
2023-04-04T07:49:05.952Z,38.03
2023-04-04T07:51:19.290Z,39.62
2023-04-04T07:52:26.951Z,37.47
2023-04-04T07:57:06.730Z,39.34
2023-04-04T07:58:14.536Z,38.76
2023-04-04T08:00:50.418Z,36.38
2023-04-04T08:08:11.550Z,35.57
2023-04-04T08:09:19.076Z,34.60
2023-04-04T08:10:19.874Z,34.60
2023-04-04T08:12:38.953Z,34.71
2023-04-04T08:13:38.744Z,34.68
2023-04-04T08:19:45.058Z,34.38
2023-04-04T08:20:52.564Z,33.77
2023-04-04T08:21:52.549Z,32.97
2023-04-04T08:36:21.206Z,31.27
2023-04-04T08:41:43.106Z,31.50
2023-04-04T08:44:10.427Z,30.62
2023-04-04T08:46:30.061Z,30.06
2023-04-04T08:55:38.634Z,30.99
2023-04-04T08:59:17.762Z,29.11
2023-04-04T09:00:25.249Z,28.82
2023-04-04T09:02:37.389Z,28.44
2023-04-04T09:03:37.150Z,28.10
2023-04-04T09:04:51.334Z,28.72
2023-04-04T09:05:38.200Z,28.99
2023-04-04T09:06:37.164Z,28.80
2023-04-04T09:07:39.211Z,29.04
2023-04-04T09:08:37.133Z,29.06
2023-04-04T09:11:53.624Z,30.28
2023-04-04T09:12:57.235Z,28.59
2023-04-04T09:13:54.690Z,27.45
2023-04-04T09:14:53.690Z,27.23
2023-04-04T09:15:53.638Z,26.92
2023-04-04T09:16:53.710Z,27.33
2023-04-04T09:17:53.731Z,26.83
2023-04-04T09:18:53.607Z,26.42
2023-04-04T09:19:53.624Z,25.71
2023-04-04T09:20:53.590Z,26.47
2023-04-04T09:21:53.608Z,26.56
2023-04-04T09:22:53.609Z,26.86
2023-04-04T09:23:53.624Z,26.65
2023-04-04T09:24:53.581Z,26.19
2023-04-04T09:26:53.595Z,25.90
2023-04-04T09:27:53.632Z,26.16
2023-04-04T09:28:53.624Z,27.10
2023-04-04T09:29:53.576Z,27.55
2023-04-04T09:30:53.585Z,28.04
2023-04-04T09:33:12.901Z,28.30
2023-04-04T09:34:12.921Z,27.93
2023-04-04T09:35:12.924Z,27.25
2023-04-04T09:36:13.105Z,27.32
2023-04-04T09:37:13.017Z,27.41
2023-04-04T09:38:12.854Z,27.58
2023-04-04T09:39:12.901Z,27.40
2023-04-04T09:40:12.885Z,27.25
2023-04-04T09:41:12.862Z,27.07
2023-04-04T09:42:12.867Z,27.19
2023-04-04T09:43:12.838Z,26.97
2023-04-04T09:44:12.841Z,26.87
2023-04-04T09:45:19.531Z,26.81
2023-04-04T09:46:14.014Z,26.65
2023-04-04T09:47:18.050Z,26.68
2023-04-04T09:48:13.846Z,26.21
2023-04-04T09:49:13.604Z,25.87
2023-04-04T09:50:12.807Z,25.51
2023-04-04T09:51:12.816Z,25.42
2023-04-04T09:52:12.743Z,25.29
2023-04-04T09:53:12.785Z,24.89
2023-04-04T09:54:18.786Z,24.52
2023-04-04T09:55:13.756Z,25.01
2023-04-04T09:56:12.802Z,25.13
2023-04-04T09:57:12.814Z,24.96
2023-04-04T09:58:12.725Z,24.59
2023-04-04T09:59:13.811Z,24.57
2023-04-04T10:00:12.762Z,24.32
2023-04-04T10:01:12.810Z,24.17
2023-04-04T10:02:12.682Z,24.26
2023-04-04T10:03:12.708Z,24.63
2023-04-04T10:04:12.739Z,25.42
2023-04-04T10:05:12.707Z,25.57
2023-04-04T10:06:12.724Z,26.08
2023-04-04T10:07:12.716Z,25.90
2023-04-04T10:08:12.743Z,25.47
2023-04-04T10:09:12.811Z,25.14
2023-04-04T10:10:12.845Z,24.47
2023-04-04T10:11:12.953Z,23.61
2023-04-04T10:12:12.903Z,23.44
2023-04-04T10:13:12.895Z,23.37
2023-04-04T10:14:12.943Z,23.54
2023-04-04T10:16:32.427Z,23.19
2023-04-04T10:17:32.400Z,22.26
2023-04-04T10:18:32.384Z,22.58
2023-04-04T10:19:32.358Z,23.00
2023-04-04T10:20:32.335Z,22.93
2023-04-04T10:21:32.348Z,22.69
2023-04-04T10:22:32.346Z,22.42
2023-04-04T10:23:32.309Z,22.28
2023-04-04T10:24:32.354Z,22.62
2023-04-04T10:25:32.354Z,22.38
2023-04-04T10:26:32.332Z,21.98
2023-04-04T10:27:32.301Z,22.10
2023-04-04T10:28:32.299Z,21.22
2023-04-04T10:29:32.289Z,21.89
2023-04-04T10:30:32.303Z,22.46
2023-04-04T10:31:32.337Z,21.51
2023-04-04T10:32:32.314Z,22.26
2023-04-04T10:33:32.271Z,21.98
2023-04-04T10:34:32.292Z,21.35
2023-04-04T10:35:32.298Z,21.58
2023-04-04T10:36:32.248Z,21.67
2023-04-04T10:37:32.269Z,20.70
2023-04-04T10:38:32.248Z,20.85
2023-04-04T10:39:32.262Z,20.96
2023-04-04T10:40:32.311Z,20.86
2023-04-04T10:41:32.332Z,20.66
2023-04-04T10:42:32.359Z,20.46
2023-04-04T10:43:32.378Z,20.52
2023-04-04T10:44:32.387Z,20.18
2023-04-04T10:45:32.453Z,20.46
2023-04-04T10:46:32.467Z,20.69
2023-04-04T10:47:32.476Z,20.58
2023-04-04T10:48:32.503Z,20.73
2023-04-04T10:49:32.505Z,20.80
2023-04-04T10:50:32.501Z,20.40
2023-04-04T10:51:35.356Z,19.62
2023-04-04T10:52:33.561Z,19.56
2023-04-04T10:53:32.527Z,19.69
2023-04-04T10:54:32.551Z,20.18
2023-04-04T10:55:32.558Z,21.05
2023-04-04T10:56:32.522Z,21.44
2023-04-04T10:57:32.517Z,21.29
2023-04-04T10:58:32.530Z,21.54
2023-04-04T10:59:32.665Z,20.92
2023-04-04T11:00:32.508Z,20.86
2023-04-04T11:01:32.502Z,20.61
2023-04-04T11:02:32.517Z,21.17
2023-04-04T11:03:32.488Z,21.08
2023-04-04T11:04:32.505Z,20.06
2023-04-04T11:05:32.504Z,19.94
2023-04-04T11:06:32.539Z,19.86
2023-04-04T11:07:32.533Z,19.66
2023-04-04T11:08:32.563Z,20.13
2023-04-04T11:09:32.560Z,20.17
2023-04-04T11:10:32.644Z,20.11
2023-04-04T11:11:32.653Z,19.73
2023-04-04T11:12:32.682Z,19.95
2023-04-04T11:13:32.747Z,20.14
2023-04-04T11:14:32.731Z,19.70
2023-04-04T11:15:32.797Z,19.29
2023-04-04T11:16:32.893Z,19.55
2023-04-04T11:17:32.906Z,18.90
2023-04-04T11:18:33.969Z,18.47
2023-04-04T11:19:32.900Z,18.47
2023-04-04T11:20:32.930Z,17.90
2023-04-04T11:21:32.952Z,18.41
2023-04-04T11:22:32.984Z,18.96
2023-04-04T11:23:33.004Z,19.00
2023-04-04T11:24:33.031Z,18.60
2023-04-04T11:25:33.030Z,18.37
2023-04-04T11:26:33.086Z,18.61
2023-04-04T11:27:33.134Z,19.14
2023-04-04T11:28:33.131Z,18.95
2023-04-04T11:29:33.154Z,17.63
2023-04-04T11:30:33.220Z,17.23
2023-04-04T11:31:33.251Z,17.24
2023-04-04T11:32:33.286Z,18.14
2023-04-04T11:33:33.348Z,17.59
2023-04-04T11:34:33.349Z,17.79
2023-04-04T11:35:33.367Z,17.54
2023-04-04T11:36:33.426Z,17.34
2023-04-04T11:37:33.451Z,18.15
2023-04-04T11:38:33.460Z,18.01
2023-04-04T11:39:33.497Z,17.86
2023-04-04T11:40:33.556Z,17.38
2023-04-04T11:41:33.557Z,17.62
2023-04-04T11:42:33.749Z,18.04
2023-04-04T11:43:33.625Z,17.73
2023-04-04T11:44:33.665Z,17.27
2023-04-04T11:45:33.673Z,17.63
2023-04-04T11:46:33.784Z,18.04
2023-04-04T11:47:33.754Z,18.31
2023-04-04T11:48:33.764Z,18.67
2023-04-04T11:49:33.816Z,18.54
2023-04-04T11:50:33.829Z,18.51
2023-04-04T11:51:33.853Z,19.24
2023-04-04T11:52:33.866Z,19.20
2023-04-04T11:53:33.899Z,18.84
2023-04-04T11:54:33.920Z,17.58
2023-04-04T11:55:33.960Z,16.88
2023-04-04T11:56:33.968Z,17.06
2023-04-04T11:57:33.983Z,17.22
2023-04-04T11:58:34.036Z,17.17
2023-04-04T11:59:34.108Z,17.30
2023-04-04T12:00:34.090Z,18.07
2023-04-04T12:01:34.603Z,18.15
2023-04-04T12:02:34.251Z,18.12
2023-04-04T12:03:34.246Z,18.37
2023-04-04T12:04:35.857Z,17.98
2023-04-04T12:05:34.377Z,17.70
2023-04-04T12:06:34.211Z,17.62
2023-04-04T12:07:34.236Z,17.60
2023-04-04T12:08:34.205Z,17.65
2023-04-04T12:09:34.201Z,17.59
2023-04-04T12:10:34.165Z,18.23
2023-04-04T12:11:34.168Z,17.79
2023-04-04T12:12:34.178Z,18.21
2023-04-04T12:13:34.152Z,18.21
2023-04-04T12:14:34.174Z,18.08
2023-04-04T12:15:34.138Z,17.91
2023-04-04T12:16:34.161Z,18.34
2023-04-04T12:17:34.166Z,17.67
2023-04-04T12:18:34.108Z,18.40
2023-04-04T12:19:34.090Z,18.09
2023-04-04T12:20:34.080Z,18.08
2023-04-04T12:21:34.108Z,17.34
2023-04-04T12:22:34.115Z,17.88
2023-04-04T12:23:34.080Z,17.93
2023-04-04T12:24:34.094Z,17.58
2023-04-04T12:25:34.130Z,17.73
2023-04-04T12:26:34.044Z,17.69
2023-04-04T12:27:34.048Z,17.47
2023-04-04T12:28:34.063Z,16.99
2023-04-04T12:29:34.046Z,17.10
2023-04-04T12:30:34.043Z,17.46
2023-04-04T12:31:34.133Z,17.66
2023-04-04T12:32:34.092Z,17.40
2023-04-04T12:33:34.018Z,17.64
2023-04-04T12:34:34.038Z,17.09
2023-04-04T12:35:34.053Z,17.05
2023-04-04T12:36:33.999Z,16.74
2023-04-04T12:37:33.992Z,16.95
2023-04-04T12:38:33.977Z,16.88
2023-04-04T12:39:33.990Z,16.88
2023-04-04T12:40:34.040Z,16.91
2023-04-04T12:41:33.956Z,16.86
2023-04-04T12:42:33.959Z,16.67
2023-04-04T12:43:33.983Z,17.34
2023-04-04T12:44:33.927Z,17.43
2023-04-04T12:45:33.956Z,17.36
2023-04-04T12:46:33.998Z,17.24
2023-04-04T12:47:33.936Z,17.03
2023-04-04T12:48:33.934Z,16.96
2023-04-04T12:49:33.937Z,17.44
2023-04-04T12:50:33.896Z,16.85
2023-04-04T12:51:33.957Z,17.05
2023-04-04T12:52:33.898Z,17.11
2023-04-04T12:53:33.894Z,17.14
2023-04-04T12:54:33.907Z,16.67
2023-04-04T12:55:33.858Z,16.27
2023-04-04T12:56:33.913Z,16.32
2023-04-04T12:57:33.878Z,16.75
2023-04-04T12:58:35.846Z,16.56
2023-04-04T12:59:33.954Z,16.99
2023-04-04T13:00:33.843Z,16.83
2023-04-04T13:01:33.844Z,17.42
2023-04-04T13:02:33.842Z,17.87
2023-04-04T13:03:33.873Z,17.58
2023-04-04T13:04:33.895Z,17.45
2023-04-04T13:05:33.825Z,17.71
2023-04-04T13:06:33.867Z,17.49
2023-04-04T13:07:33.820Z,17.06
2023-04-04T13:08:33.801Z,16.95
2023-04-04T13:09:35.006Z,16.60
2023-04-04T13:10:33.791Z,16.70
2023-04-04T13:11:33.765Z,17.18
2023-04-04T13:12:33.791Z,16.90
2023-04-04T13:13:33.786Z,17.06
2023-04-04T13:14:33.750Z,17.11
2023-04-04T13:15:33.764Z,17.20
2023-04-04T13:16:33.812Z,17.24
2023-04-04T13:17:33.821Z,17.05
2023-04-04T13:18:33.721Z,16.78
2023-04-04T13:19:33.723Z,16.81
2023-04-04T13:20:33.715Z,17.04
2023-04-04T13:21:33.725Z,17.30
2023-04-04T13:22:33.700Z,17.15
2023-04-04T13:23:33.739Z,16.82
2023-04-04T13:24:33.776Z,16.79
2023-04-04T13:25:33.791Z,16.91
2023-04-04T13:26:33.811Z,16.61
2023-04-04T13:27:33.877Z,16.88
2023-04-04T13:28:33.879Z,16.74
2023-04-04T13:29:33.911Z,16.57
2023-04-04T13:30:33.976Z,16.84
2023-04-04T13:31:33.943Z,17.24
2023-04-04T13:32:34.038Z,17.08
2023-04-04T13:33:34.029Z,17.19
2023-04-04T13:34:34.131Z,17.22
2023-04-04T13:35:34.081Z,17.90
2023-04-04T13:36:34.179Z,18.10
2023-04-04T13:37:34.168Z,17.78
2023-04-04T13:38:34.178Z,17.48
2023-04-04T13:39:34.331Z,17.26
2023-04-04T13:40:34.218Z,17.25
2023-04-04T13:41:34.281Z,17.09
2023-04-04T13:42:34.297Z,17.28
2023-04-04T13:43:34.312Z,17.27
2023-04-04T13:44:34.404Z,16.87
2023-04-04T13:45:34.411Z,16.94
2023-04-04T13:46:34.586Z,17.03
2023-04-04T13:47:34.465Z,17.04
2023-04-04T13:48:34.454Z,16.92
2023-04-04T13:49:34.518Z,17.05
2023-04-04T13:50:34.523Z,16.99
2023-04-04T13:51:34.534Z,17.02
2023-04-04T13:52:34.572Z,16.94
2023-04-04T13:53:34.668Z,17.56
2023-04-04T13:54:34.680Z,17.95
2023-04-04T13:55:34.678Z,18.10
2023-04-04T13:56:34.701Z,17.79
2023-04-04T13:57:34.737Z,18.24
2023-04-04T13:58:39.016Z,18.80
2023-04-04T13:59:34.862Z,18.93
2023-04-04T14:00:34.704Z,18.19
2023-04-04T14:01:34.758Z,17.46
2023-04-04T14:02:34.744Z,17.61
2023-04-04T14:03:34.774Z,17.72
2023-04-04T14:04:34.726Z,17.86
2023-04-04T14:05:34.675Z,18.03
2023-04-04T14:06:34.737Z,18.04
2023-04-04T14:07:34.680Z,18.06
2023-04-04T14:08:34.998Z,18.13
2023-04-04T14:09:34.680Z,18.22
2023-04-04T14:10:34.657Z,18.30
2023-04-04T14:11:34.647Z,18.19
2023-04-04T14:12:34.624Z,17.80
2023-04-04T14:13:34.628Z,17.81
2023-04-04T14:14:36.707Z,17.69
2023-04-04T14:15:34.593Z,17.99
2023-04-04T14:16:34.720Z,18.22
2023-04-04T14:17:34.645Z,17.70
2023-04-04T14:18:34.681Z,17.47
2023-04-04T14:19:34.593Z,17.26
2023-04-04T14:20:35.162Z,17.43
2023-04-04T14:21:34.566Z,17.88
2023-04-04T14:22:34.589Z,17.69
2023-04-04T14:23:34.587Z,17.92
2023-04-04T14:24:34.576Z,17.84
2023-04-04T14:25:34.595Z,17.77
2023-04-04T14:26:35.143Z,17.67
2023-04-04T14:27:34.539Z,17.29
2023-04-04T14:28:34.513Z,17.54
2023-04-04T14:29:34.517Z,17.98
2023-04-04T14:30:34.560Z,17.95
2023-04-04T14:31:34.527Z,17.99
2023-04-04T14:32:35.114Z,18.25
2023-04-04T14:33:34.505Z,18.34
2023-04-04T14:34:34.500Z,18.34
2023-04-04T14:35:34.488Z,18.69
2023-04-04T14:36:34.517Z,18.76
2023-04-04T14:37:34.476Z,18.69
2023-04-04T14:38:34.487Z,18.58
2023-04-04T14:39:34.463Z,18.56
2023-04-04T14:40:34.461Z,18.47
2023-04-04T14:41:34.451Z,19.00
2023-04-04T14:42:34.422Z,19.24
2023-04-04T14:43:34.448Z,19.24
2023-04-04T14:44:34.448Z,19.28
2023-04-04T14:45:34.447Z,19.29
2023-04-04T14:46:34.453Z,19.42
2023-04-04T14:47:34.461Z,19.40
2023-04-04T14:48:34.406Z,19.51
2023-04-04T14:49:34.419Z,19.41
2023-04-04T14:50:34.373Z,18.95
2023-04-04T14:51:34.356Z,19.22
2023-04-04T14:52:34.357Z,19.55
2023-04-04T14:53:34.368Z,19.35
2023-04-04T14:54:34.374Z,19.45
2023-04-04T14:55:34.369Z,19.55
2023-04-04T14:56:34.338Z,19.47
2023-04-04T14:57:39.131Z,19.70
2023-04-04T14:58:35.323Z,19.86
2023-04-04T14:59:34.378Z,19.72
2023-04-04T15:00:34.293Z,19.76
2023-04-04T15:01:34.329Z,20.14
2023-04-04T15:02:34.343Z,20.25
2023-04-04T15:03:34.316Z,20.52
2023-04-04T15:04:34.342Z,20.52
2023-04-04T15:05:34.310Z,20.46
2023-04-04T15:06:34.281Z,20.46
2023-04-04T15:07:34.275Z,20.20
2023-04-04T15:08:34.277Z,20.43
2023-04-04T15:09:34.298Z,20.74
2023-04-04T15:10:34.270Z,20.90
2023-04-04T15:11:34.238Z,21.22
2023-04-04T15:12:34.262Z,20.85
2023-04-04T15:13:34.287Z,20.88
2023-04-04T15:14:34.325Z,20.88
2023-04-04T15:15:34.373Z,20.95
2023-04-04T15:16:34.431Z,20.87
2023-04-04T15:17:34.438Z,20.98
2023-04-04T15:18:34.448Z,21.30
2023-04-04T15:19:34.451Z,21.63
2023-04-04T15:20:34.476Z,21.66
2023-04-04T15:21:34.512Z,21.85
2023-04-04T15:22:34.584Z,21.42
2023-04-04T15:23:34.558Z,21.92
2023-04-04T15:24:34.586Z,21.90
2023-04-04T15:25:34.618Z,21.99
2023-04-04T15:26:34.674Z,22.03
2023-04-04T15:27:34.708Z,22.03
2023-04-04T15:28:34.722Z,22.20
2023-04-04T15:29:34.714Z,22.44
2023-04-04T15:30:34.741Z,22.81
2023-04-04T15:31:34.919Z,22.71
2023-04-04T15:32:34.826Z,22.51
2023-04-04T15:33:34.853Z,22.71
2023-04-04T15:34:34.878Z,22.75
2023-04-04T15:35:34.958Z,22.78
2023-04-04T15:36:34.942Z,22.59
2023-04-04T15:37:34.991Z,22.52
2023-04-04T15:38:35.022Z,22.30
2023-04-04T15:39:46.076Z,22.59
2023-04-04T15:40:36.123Z,22.48
2023-04-04T15:41:35.034Z,22.47
2023-04-04T15:42:35.034Z,22.83
2023-04-04T15:43:35.047Z,23.02
2023-04-04T15:44:35.023Z,23.32
2023-04-04T15:45:35.064Z,23.60
2023-04-04T15:46:35.029Z,23.86
2023-04-04T15:47:35.027Z,23.86
2023-04-04T15:48:34.972Z,23.93
2023-04-04T15:49:34.981Z,23.67
2023-04-04T15:50:34.979Z,23.66
2023-04-04T15:51:35.002Z,23.86
2023-04-04T15:52:34.963Z,23.87
2023-04-04T15:53:35.000Z,24.21
2023-04-04T15:54:35.033Z,24.29
2023-04-04T15:55:35.043Z,24.29
2023-04-04T15:56:35.104Z,24.18
2023-04-04T15:57:35.132Z,24.25
2023-04-04T15:58:35.129Z,24.40
2023-04-04T15:59:35.145Z,24.75
2023-04-04T16:00:35.144Z,24.95
2023-04-04T16:03:02.508Z,25.99
2023-04-04T16:11:49.515Z,27.17
2023-04-04T16:32:09.663Z,30.04
2023-04-04T16:43:04.546Z,30.92
2023-04-04T16:48:11.300Z,31.45
2023-04-04T16:54:54.965Z,32.60
2023-04-04T17:04:02.931Z,32.44
2023-04-04T17:06:30.289Z,31.84
2023-04-04T17:08:49.766Z,32.12
2023-04-04T17:11:09.684Z,32.48
2023-04-04T17:15:28.876Z,33.70
2023-04-04T17:16:36.430Z,33.40
2023-04-04T17:20:16.017Z,33.50
2023-04-04T17:21:15.776Z,33.40
2023-04-04T17:26:25.440Z,34.77
2023-04-04T17:46:55.338Z,36.46
2023-04-04T17:48:02.920Z,35.90
2023-04-04T17:50:41.405Z,36.26
2023-04-04T17:53:00.973Z,36.48
2023-04-04T17:59:39.188Z,36.48
2023-04-04T18:04:30.705Z,37.32
2023-04-04T18:08:46.049Z,38.15
2023-04-04T18:09:53.645Z,37.43
2023-04-04T18:13:33.110Z,37.21
2023-04-04T18:14:33.588Z,37.00
2023-04-04T18:19:11.216Z,38.41
2023-04-04T18:22:58.208Z,37.42
2023-04-04T18:31:07.142Z,38.67
2023-04-04T18:32:14.632Z,38.04
2023-04-04T18:46:08.840Z,38.05
2023-04-04T18:47:08.989Z,37.73
2023-04-04T18:51:45.295Z,39.05
2023-04-04T18:52:52.861Z,38.03
2023-04-04T18:55:05.013Z,38.82
2023-04-04T18:56:12.538Z,38.26
2023-04-04T18:57:12.522Z,37.95
2023-04-04T18:59:32.464Z,38.07
2023-04-04T19:03:56.919Z,38.94
2023-04-04T19:05:04.406Z,38.12
2023-04-04T19:06:04.427Z,37.81
2023-04-04T19:08:17.869Z,38.48
2023-04-04T19:09:25.407Z,37.61
2023-04-04T19:14:58.790Z,39.06
2023-04-04T19:17:26.215Z,38.10
2023-04-04T19:21:05.599Z,37.61
2023-04-04T19:24:26.947Z,38.44
2023-04-04T19:25:34.374Z,37.93
2023-04-04T19:29:22.040Z,38.86
2023-04-04T19:36:16.026Z,39.59
2023-04-04T19:37:23.492Z,38.58
2023-04-04T19:45:20.152Z,38.89
2023-04-04T19:49:07.846Z,38.84
2023-04-04T19:51:56.055Z,39.76
2023-04-04T19:57:01.558Z,39.57
2023-04-04T19:58:09.302Z,38.83
2023-04-04T20:00:34.926Z,39.71
2023-04-04T20:08:35.567Z,39.77
2023-04-04T20:09:35.562Z,38.97
2023-04-04T20:14:34.693Z,39.15
2023-04-04T20:19:24.992Z,39.59
2023-04-04T20:23:04.419Z,39.03
2023-04-04T20:24:04.191Z,38.75
2023-04-04T20:29:59.963Z,39.78
2023-04-04T20:32:30.071Z,40.04
2023-04-04T20:34:56.962Z,39.25
2023-04-04T20:38:55.107Z,39.72
2023-04-04T20:42:42.075Z,39.15
2023-04-04T20:43:42.365Z,38.42
2023-04-04T20:51:09.106Z,39.37
2023-04-04T20:53:29.786Z,39.31
2023-04-04T20:55:49.475Z,39.21
2023-04-04T21:01:45.479Z,40.04
2023-04-04T21:06:51.873Z,39.80
2023-04-04T21:12:46.745Z,40.83
2023-04-04T21:26:38.045Z,39.44
2023-04-04T21:27:45.590Z,38.85
2023-04-04T21:28:45.985Z,38.76
2023-04-04T21:34:09.576Z,39.81
2023-04-04T21:44:28.823Z,39.35
2023-04-04T21:45:36.215Z,38.71
2023-04-04T21:46:36.279Z,38.71
2023-04-04T21:54:46.644Z,39.93
2023-04-04T21:55:54.114Z,39.14
2023-04-04T22:05:38.129Z,40.25
2023-04-04T22:06:34.961Z,39.32
2023-04-04T22:07:34.284Z,39.09
2023-04-04T22:09:47.024Z,39.49
2023-04-04T22:10:54.574Z,38.68
2023-04-04T22:11:54.519Z,38.75
2023-04-04T22:15:21.557Z,39.56
2023-04-04T22:16:29.157Z,38.76
2023-04-04T22:26:08.403Z,39.70
2023-04-04T22:27:16.031Z,38.73
2023-04-04T22:28:15.884Z,38.59
2023-04-04T22:31:55.571Z,38.67
2023-04-04T22:32:55.340Z,38.88
2023-04-04T22:38:02.157Z,40.57
2023-04-04T22:48:28.141Z,40.30
2023-04-04T22:49:36.149Z,39.08
2023-04-04T22:50:35.646Z,38.89
2023-04-04T22:52:55.564Z,39.54
2023-04-04T22:55:15.210Z,39.25
2023-04-04T22:58:42.134Z,39.90
2023-04-04T22:59:49.653Z,39.05
2023-04-04T23:00:49.630Z,39.13
2023-04-04T23:01:49.594Z,39.12
2023-04-04T23:05:30.204Z,38.92
2023-04-04T23:10:45.712Z,40.61
2023-04-04T23:21:21.657Z,40.25
2023-04-04T23:22:29.233Z,38.88
2023-04-04T23:24:51.346Z,39.92
2023-04-04T23:31:58.568Z,39.96
2023-04-04T23:43:00.183Z,40.88
2023-04-04T23:44:00.155Z,39.90
2023-04-04T23:52:41.457Z,41.33
2023-04-04T23:57:59.399Z,41.11
